Cathlamet — WYR7641 — position and weather

sailwx.info

Track history (hours):
 
Tides and Currents Weather Stations Pressure Air Temp Water Temp Dewpoint Dewpoint Depression Visibility Wind Speed Wind Dir Waves Ship Positions

Cathlamet

Owner: WASHINGTON, STATE OF; Dept. of Transportation, OLYMPIA, WA. More information available from US FCC via Universal Licensing System and Coast Guard Vessel Documentation Center.

Last reported at 2015-Jan-25 17:33 UTC. Time now 2015-Jan-25 18:24 UTC.
Position N 47°34' W 122°38'.

Length 100 m.

Type: Passenger vessel. MMSI: 366773070.

Date/timePositionNaut miles runAvg speedWind from/ knotsBaromVisibWave heightAir tempDewpointWater temp
2015-Jan-25 17:33N 47°34' W 122°38'0 0.0
2015-Jan-25 17:29N 47°34' W 122°38'1112.1
2015-Jan-25 16:33N 47°36' W 122°21'1 6.8
2015-Jan-25 16:29N 47°36' W 122°20'910.1
2015-Jan-25 15:33N 47°35' W 122°34'3 4.7
2015-Jan-25 14:58N 47°34' W 122°37'511.8
2015-Jan-25 14:34N 47°34' W 122°30'015.0
2015-Jan-25 14:33N 47°34' W 122°30'6 6.4
2015-Jan-25 13:34N 47°36' W 122°21'018.2
2015-Jan-25 13:33N 47°36' W 122°21'1111.2
2015-Jan-25 12:33N 47°34' W 122°37'0 0.0
2015-Jan-25 12:26N 47°34' W 122°37'0 0.0
2015-Jan-25 11:33N 47°34' W 122°37'0 0.1
2015-Jan-25 11:31N 47°34' W 122°37'0 0.0
2015-Jan-25 10:33N 47°34' W 122°37'0 0.0
2015-Jan-25 10:31N 47°34' W 122°37'0 0.0
2015-Jan-25 09:33N 47°34' W 122°37'0 0.0
2015-Jan-25 09:30N 47°34' W 122°37'0 0.0
2015-Jan-25 08:33N 47°34' W 122°37'0 0.0
2015-Jan-25 08:31N 47°34' W 122°37'0 0.0
2015-Jan-25 07:33N 47°34' W 122°37'0 0.0
2015-Jan-25 07:30N 47°34' W 122°37'0 0.0
2015-Jan-25 07:06N 47°34' W 122°37'0 0.0
2015-Jan-25 06:33N 47°34' W 122°37'7 6.6
2015-Jan-25 05:33N 47°35' W 122°28'115.2
2015-Jan-25 05:30N 47°35' W 122°27'2 2.2
2015-Jan-25 04:33N 47°34' W 122°29'117.3
2015-Jan-25 04:30N 47°34' W 122°31'3 3.1
2015-Jan-25 03:33N 47°35' W 122°35'113.8
2015-Jan-25 03:29N 47°35' W 122°34'9 9.6
2015-Jan-25 02:33N 47°36' W 122°20'0 1.6
2015-Jan-25 02:28N 47°36' W 122°21'1212.8
2015-Jan-25 01:33N 47°34' W 122°38'0 1.7
2015-Jan-25 01:16N 47°34' W 122°37'912.9
2015-Jan-25 00:34N 47°37' W 122°24'115.7
2015-Jan-25 00:31N 47°37' W 122°23'4 3.7
2015-Jan-24 23:33N 47°35' W 122°28'117.1
2015-Jan-24 23:31N 47°34' W 122°29'6 6.1
2015-Jan-24 22:33N 47°34' W 122°38'0 0.0
2015-Jan-24 22:31N 47°34' W 122°38'1111.9
2015-Jan-24 21:33N 47°36' W 122°21'9 8.8
2015-Jan-24 20:34N 47°35' W 122°34'4 3.7
2015-Jan-24 19:33N 47°35' W 122°29'6 8.9
2015-Jan-24 18:54N 47°36' W 122°20'0 1.3
2015-Jan-24 18:33N 47°36' W 122°21'1111.4
2015-Jan-24 17:34N 47°34' W 122°38'3 8.0
2015-Jan-24 17:12N 47°35' W 122°34'914.0
2015-Jan-24 16:33N 47°36' W 122°21'0 1.0
2015-Jan-24 16:21N 47°36' W 122°20'911.6
2015-Jan-24 15:34N 47°35' W 122°34'013.1
2015-Jan-24 15:32N 47°35' W 122°35'2 2.3
2015-Jan-24 14:34N 47°34' W 122°32'012.1
2015-Jan-24 14:31N 47°34' W 122°31'4 4.0
2015-Jan-24 13:33N 47°36' W 122°26'116.9
2015-Jan-24 13:31N 47°35' W 122°26'8 7.8
2015-Jan-24 12:33N 47°34' W 122°37'0 0.2
2015-Jan-24 12:31N 47°34' W 122°37'0 0.0
2015-Jan-24 11:33N 47°34' W 122°37'0 0.0
2015-Jan-24 11:26N 47°34' W 122°37'0 0.0
2015-Jan-24 10:33N 47°34' W 122°37'0 0.0
2015-Jan-24 10:31N 47°34' W 122°37'0 0.0
2015-Jan-24 09:33N 47°34' W 122°37'0 0.0
2015-Jan-24 09:30N 47°34' W 122°37'0 0.0
2015-Jan-24 08:33N 47°34' W 122°37'0 0.0
2015-Jan-24 08:29N 47°34' W 122°37'0 0.0
2015-Jan-24 07:33N 47°34' W 122°37'0 0.1
2015-Jan-24 07:30N 47°34' W 122°37'0 0.0
2015-Jan-24 07:00N 47°34' W 122°37'0 0.0
2015-Jan-24 06:33N 47°34' W 122°37'5 4.7
2015-Jan-24 05:33N 47°34' W 122°31'115.9
2015-Jan-24 05:30N 47°35' W 122°29'2 2.6
2015-Jan-24 04:34N 47°35' W 122°26'116.9
2015-Jan-24 04:30N 47°35' W 122°27'6 6.3
2015-Jan-24 03:33N 47°34' W 122°36'116.5
2015-Jan-24 03:29N 47°35' W 122°35'1010.1
2015-Jan-24 02:31N 47°36' W 122°20'1 4.6
2015-Jan-24 02:18N 47°36' W 122°22'1113.9
2015-Jan-24 01:33N 47°34' W 122°37'0 5.0
2015-Jan-24 01:29N 47°34' W 122°38'9 9.5
2015-Jan-24 00:34N 47°36' W 122°25'019.2
2015-Jan-24 00:33N 47°36' W 122°25'2 2.4
2015-Jan-23 23:34N 47°35' W 122°28'016.8
2015-Jan-23 23:33N 47°35' W 122°28'6 6.5
2015-Jan-23 22:33N 47°34' W 122°38'0 0.0
2015-Jan-23 22:32N 47°34' W 122°38'1211.7
2015-Jan-23 21:34N 47°36' W 122°21'0 2.8
2015-Jan-23 21:27N 47°36' W 122°20'910.4
2015-Jan-23 20:34N 47°35' W 122°34'4 4.4
2015-Jan-23 19:33N 47°35' W 122°28'4 4.3
2015-Jan-23 18:34N 47°36' W 122°22'1111.0
2015-Jan-23 17:34N 47°34' W 122°38'1211.5
2015-Jan-23 16:33N 47°36' W 122°21'9 8.9
2015-Jan-23 15:34N 47°35' W 122°34'3 2.7
2015-Jan-23 14:34N 47°34' W 122°30'3 3.0
2015-Jan-23 13:34N 47°35' W 122°26'8 7.6
2015-Jan-23 12:34N 47°34' W 122°37'0 0.0
2015-Jan-23 11:34N 47°34' W 122°37'0 0.0
2015-Jan-23 10:33N 47°34' W 122°37'0 0.0
2015-Jan-23 09:33N 47°34' W 122°37'0 0.0
2015-Jan-23 08:34N 47°34' W 122°37'0 0.0
2015-Jan-23 07:34N 47°34' W 122°37'0 0.0
2015-Jan-23 06:33N 47°34' W 122°37'5 4.8
2015-Jan-23 05:33N 47°34' W 122°30'116.9
2015-Jan-23 05:31N 47°34' W 122°30'3 3.3
2015-Jan-23 04:34N 47°36' W 122°25'117.7
2015-Jan-23 04:31N 47°35' W 122°26'6 6.4
2015-Jan-23 03:33N 47°35' W 122°35'016.2
2015-Jan-23 03:31N 47°35' W 122°35'10 9.7
2015-Jan-23 02:31N 47°36' W 122°20'0 1.3
2015-Jan-23 02:29N 47°36' W 122°20'1212.8
2015-Jan-23 01:34N 47°34' W 122°38'0 0.0
2015-Jan-23 01:33N 47°34' W 122°38'9 8.9
2015-Jan-23 00:34N 47°36' W 122°25'022.8
2015-Jan-23 00:33N 47°36' W 122°25'3 2.7
2015-Jan-22 23:34N 47°35' W 122°28'076.0
2015-Jan-22 23:34N 47°35' W 122°28'6 6.3
2015-Jan-22 22:33N 47°34' W 122°38'0 0.0
2015-Jan-22 22:33N 47°34' W 122°38'1211.6
2015-Jan-22 21:33N 47°36' W 122°21'1 2.0
2015-Jan-22 21:08N 47°36' W 122°22'814.3
2015-Jan-22 20:34N 47°35' W 122°34'014.2
2015-Jan-22 20:33N 47°35' W 122°34'4 4.1
2015-Jan-22 19:34N 47°35' W 122°28'216.7
2015-Jan-22 19:26N 47°36' W 122°25'3 3.4
2015-Jan-22 18:33N 47°36' W 122°21'116.0
2015-Jan-22 18:31N 47°36' W 122°22'1111.2
2015-Jan-22 17:33N 47°34' W 122°38'0 0.0
2015-Jan-22 17:31N 47°34' W 122°38'1111.8
2015-Jan-22 16:33N 47°36' W 122°21'0 9.9
2015-Jan-22 16:31N 47°36' W 122°20'9 9.7
2015-Jan-22 15:33N 47°35' W 122°34'115.6
2015-Jan-22 15:31N 47°35' W 122°35'2 1.9
2015-Jan-22 14:34N 47°34' W 122°32'213.1
2015-Jan-22 14:26N 47°34' W 122°30'4 4.3
2015-Jan-22 13:34N 47°36' W 122°25'117.1
2015-Jan-22 13:31N 47°36' W 122°26'8 8.5
2015-Jan-22 12:33N 47°34' W 122°37'0 0.0
2015-Jan-22 12:30N 47°34' W 122°37'0 0.0
2015-Jan-22 11:33N 47°34' W 122°37'0 0.0
2015-Jan-22 11:26N 47°34' W 122°37'0 0.0
2015-Jan-22 10:33N 47°34' W 122°37'0 0.1
2015-Jan-22 10:30N 47°34' W 122°37'0 0.0
2015-Jan-22 09:33N 47°34' W 122°37'0 0.0
2015-Jan-22 09:30N 47°34' W 122°37'0 0.0
2015-Jan-22 08:33N 47°34' W 122°37'0 0.0
2015-Jan-22 08:30N 47°34' W 122°37'0 0.0
2015-Jan-22 07:33N 47°34' W 122°37'0 0.0
2015-Jan-22 07:30N 47°34' W 122°37'0 0.0
2015-Jan-22 07:05N 47°34' W 122°37'0 0.0
2015-Jan-22 06:33N 47°34' W 122°37'5 4.8
2015-Jan-22 05:34N 47°34' W 122°30'115.7
2015-Jan-22 05:29N 47°35' W 122°29'3 3.2
2015-Jan-22 04:33N 47°36' W 122°25'117.1
2015-Jan-22 04:29N 47°35' W 122°27'6 6.5
2015-Jan-22 03:34N 47°35' W 122°35'015.4
2015-Jan-22 03:32N 47°35' W 122°35'1010.1
2015-Jan-22 02:33N 47°36' W 122°20'0 0.0
2015-Jan-22 02:32N 47°36' W 122°20'1212.1
2015-Jan-22 01:34N 47°34' W 122°37'0 3.2
2015-Jan-22 01:31N 47°34' W 122°38'9 9.2
2015-Jan-22 00:33N 47°36' W 122°25'117.0
2015-Jan-22 00:31N 47°36' W 122°24'3 3.6
2015-Jan-21 23:33N 47°35' W 122°28'116.4
2015-Jan-21 23:31N 47°34' W 122°29'5 8.2
2015-Jan-21 22:50N 47°34' W 122°38'0 0.1
2015-Jan-21 22:46N 47°34' W 122°38'0 0.0
2015-Jan-21 22:46N 47°34' W 122°38'0 0.0
2015-Jan-21 22:33N 47°34' W 122°38'1 2.7
2015-Jan-21 22:20N 47°33' W 122°37'1114.1
2015-Jan-21 21:33N 47°36' W 122°21'1 1.8
2015-Jan-21 21:10N 47°36' W 122°22'813.7
2015-Jan-21 20:33N 47°35' W 122°34'116.4
2015-Jan-21 20:30N 47°35' W 122°35'4 4.6
2015-Jan-21 19:34N 47°34' W 122°29'117.0
2015-Jan-21 19:30N 47°35' W 122°27'4 4.5
2015-Jan-21 18:33N 47°36' W 122°21'117.0
2015-Jan-21 18:30N 47°36' W 122°23'1010.9
2015-Jan-21 17:34N 47°34' W 122°38'0 0.9
2015-Jan-21 17:30N 47°34' W 122°37'1212.2
2015-Jan-21 16:32N 47°36' W 122°20'0 0.5
2015-Jan-21 16:14N 47°36' W 122°21'1014.4
2015-Jan-21 15:33N 47°35' W 122°35'117.4
2015-Jan-21 15:30N 47°34' W 122°36'3 3.6
2015-Jan-21 14:33N 47°34' W 122°31'116.6
2015-Jan-21 14:30N 47°34' W 122°29'2 2.5
2015-Jan-21 13:34N 47°35' W 122°26'116.8
2015-Jan-21 13:29N 47°35' W 122°28'6 6.9
2015-Jan-21 12:33N 47°34' W 122°37'0 0.0
2015-Jan-21 12:29N 47°34' W 122°37'0 0.0
2015-Jan-21 11:33N 47°34' W 122°37'0 0.4
2015-Jan-21 11:33N 47°34' W 122°37'0 0.0
2015-Jan-21 10:33N 47°34' W 122°37'0 0.0
2015-Jan-21 10:28N 47°34' W 122°37'0 0.0
2015-Jan-21 09:33N 47°34' W 122°37'0 0.1
2015-Jan-21 09:28N 47°34' W 122°37'0 0.0
2015-Jan-21 08:33N 47°34' W 122°37'0 0.2
2015-Jan-21 08:32N 47°34' W 122°37'0 0.0
2015-Jan-21 07:33N 47°34' W 122°37'0 0.4
2015-Jan-21 07:32N 47°34' W 122°37'0 0.0
2015-Jan-21 07:02N 47°34' W 122°37'0 0.0
2015-Jan-21 06:33N 47°34' W 122°37'6 5.7
2015-Jan-21 05:34N 47°34' W 122°29'011.2
2015-Jan-21 05:32N 47°35' W 122°29'2 2.1
2015-Jan-21 04:33N 47°35' W 122°26'6 6.1
2015-Jan-21 03:34N 47°35' W 122°35'3 9.5
2015-Jan-21 03:12N 47°34' W 122°30'7 8.8
2015-Jan-21 02:26N 47°36' W 122°20'0 3.8
2015-Jan-21 02:23N 47°36' W 122°21'1214.1
2015-Jan-21 01:33N 47°34' W 122°37'0 1.5
2015-Jan-21 01:32N 47°34' W 122°37'9 9.0
2015-Jan-21 00:33N 47°36' W 122°25'0 8.3
2015-Jan-21 00:33N 47°36' W 122°25'3 2.9
2015-Jan-20 23:33N 47°34' W 122°28'013.5
2015-Jan-20 23:32N 47°34' W 122°29'6 6.1
2015-Jan-20 22:33N 47°34' W 122°38'0 0.0
2015-Jan-20 22:33N 47°34' W 122°38'1210.3
2015-Jan-20 21:24N 47°36' W 122°20'2 6.5
2015-Jan-20 21:07N 47°36' W 122°23'713.5
2015-Jan-20 20:33N 47°35' W 122°34'013.8
2015-Jan-20 20:31N 47°35' W 122°35'4 4.1
2015-Jan-20 19:33N 47°35' W 122°29'115.2
2015-Jan-20 19:31N 47°35' W 122°28'5 4.7
2015-Jan-20 18:33N 47°36' W 122°22'013.9
2015-Jan-20 18:31N 47°36' W 122°22'1010.9
2015-Jan-20 17:33N 47°34' W 122°38'0 0.2
2015-Jan-20 17:31N 47°34' W 122°38'1212.0
2015-Jan-20 16:33N 47°36' W 122°21'0 5.5
2015-Jan-20 16:30N 47°36' W 122°20'9 9.7
2015-Jan-20 15:34N 47°35' W 122°34'114.3
2015-Jan-20 15:30N 47°35' W 122°35'2 2.4
2015-Jan-20 14:34N 47°34' W 122°32'114.1
2015-Jan-20 14:30N 47°34' W 122°31'4 4.0
2015-Jan-20 13:33N 47°36' W 122°25'612.9
2015-Jan-20 13:05N 47°35' W 122°35'2 4.5
2015-Jan-20 12:33N 47°34' W 122°37'0 0.1
2015-Jan-20 12:30N 47°34' W 122°37'0 0.0
2015-Jan-20 11:33N 47°34' W 122°37'0 0.0
2015-Jan-20 11:29N 47°34' W 122°37'0 0.0
2015-Jan-20 10:33N 47°34' W 122°37'0 0.0
2015-Jan-20 10:07N 47°34' W 122°37'0 0.0
2015-Jan-20 09:33N 47°34' W 122°37'0 0.0
2015-Jan-20 09:32N 47°34' W 122°37'0 0.0
2015-Jan-20 08:33N 47°34' W 122°37'0 0.0
2015-Jan-20 08:32N 47°34' W 122°37'0 0.0
2015-Jan-20 07:33N 47°34' W 122°37'0 0.0
2015-Jan-20 07:32N 47°34' W 122°37'0 0.0
2015-Jan-20 07:03N 47°34' W 122°37'0 0.0
2015-Jan-20 06:33N 47°34' W 122°37'5 4.7
2015-Jan-20 05:33N 47°34' W 122°31'012.1
2015-Jan-20 05:32N 47°34' W 122°30'3 3.2
2015-Jan-20 04:33N 47°35' W 122°26'614.3
2015-Jan-20 04:10N 47°35' W 122°34'1 0.9
2015-Jan-20 03:33N 47°35' W 122°35'011.9
2015-Jan-20 03:31N 47°35' W 122°34'9 9.2
2015-Jan-20 02:30N 47°36' W 122°20'0 0.0
2015-Jan-20 02:28N 47°36' W 122°20'1212.9
2015-Jan-20 01:33N 47°34' W 122°38'0 0.0
2015-Jan-20 01:30N 47°34' W 122°38'9 9.3
2015-Jan-20 00:34N 47°36' W 122°25'115.5
2015-Jan-20 00:31N 47°36' W 122°24'3 3.3
2015-Jan-19 23:33N 47°35' W 122°28'116.5
2015-Jan-19 23:31N 47°34' W 122°29'6 6.1
2015-Jan-19 22:33N 47°34' W 122°38'0 0.1
2015-Jan-19 22:31N 47°34' W 122°38'1111.8
2015-Jan-19 21:33N 47°36' W 122°21'1 3.8
2015-Jan-19 21:24N 47°36' W 122°20'910.9
2015-Jan-19 20:33N 47°35' W 122°34'113.8
2015-Jan-19 20:30N 47°35' W 122°35'4 4.7
2015-Jan-19 19:33N 47°35' W 122°28'116.2
2015-Jan-19 19:30N 47°35' W 122°27'3 3.6
2015-Jan-19 18:34N 47°36' W 122°22'114.1
2015-Jan-19 18:30N 47°36' W 122°23'1010.6
2015-Jan-19 17:33N 47°34' W 122°38'0 0.1
2015-Jan-19 17:30N 47°34' W 122°38'1112.0
2015-Jan-19 16:33N 47°36' W 122°21'9 9.0
2015-Jan-19 15:33N 47°35' W 122°34'2 1.8
2015-Jan-19 14:33N 47°34' W 122°32'213.4
2015-Jan-19 14:24N 47°35' W 122°29'3 3.6
2015-Jan-19 13:33N 47°36' W 122°24'116.4
2015-Jan-19 13:29N 47°35' W 122°26'8 8.4
2015-Jan-19 12:33N 47°34' W 122°37'0 0.1
2015-Jan-19 12:29N 47°34' W 122°37'0 0.0
2015-Jan-19 11:33N 47°34' W 122°37'0 0.1
2015-Jan-19 11:28N 47°34' W 122°37'0 0.0
2015-Jan-19 10:33N 47°34' W 122°37'0 0.0
2015-Jan-19 10:29N 47°34' W 122°37'0 0.0
2015-Jan-19 09:33N 47°34' W 122°37'0 0.1
2015-Jan-19 09:29N 47°34' W 122°37'0 0.0
2015-Jan-19 08:33N 47°34' W 122°37'0 0.0
2015-Jan-19 07:33N 47°34' W 122°37'0 0.0
2015-Jan-19 07:11N 47°34' W 122°37'0 0.0
2015-Jan-19 07:01N 47°34' W 122°37'0 0.0
2015-Jan-19 06:33N 47°34' W 122°37'5 5.1
2015-Jan-19 05:33N 47°34' W 122°30'114.6
2015-Jan-19 05:31N 47°35' W 122°29'2 1.7
2015-Jan-19 04:33N 47°35' W 122°27'117.0
2015-Jan-19 04:30N 47°35' W 122°28'4 4.7
2015-Jan-19 03:33N 47°35' W 122°35'0 9.8
2015-Jan-19 03:31N 47°35' W 122°34'9 9.0
2015-Jan-19 02:30N 47°36' W 122°20'0 0.0
2015-Jan-19 02:29N 47°36' W 122°20'1212.6
2015-Jan-19 01:34N 47°34' W 122°38'0 0.0
2015-Jan-19 01:29N 47°34' W 122°38'910.0
2015-Jan-19 00:33N 47°36' W 122°24'115.6
2015-Jan-19 00:30N 47°36' W 122°23'3 3.4
2015-Jan-18 23:33N 47°35' W 122°27'117.1
2015-Jan-18 23:30N 47°34' W 122°28'6 6.6
2015-Jan-18 22:33N 47°34' W 122°38'0 0.0
2015-Jan-18 22:30N 47°34' W 122°38'1112.1
2015-Jan-18 21:33N 47°36' W 122°21'0 6.9
2015-Jan-18 21:30N 47°36' W 122°20'9 9.6
2015-Jan-18 20:34N 47°35' W 122°34'113.8
2015-Jan-18 20:30N 47°35' W 122°35'4 4.6
2015-Jan-18 19:33N 47°35' W 122°28'115.3
2015-Jan-18 19:30N 47°35' W 122°27'4 4.6
2015-Jan-18 18:35N 47°36' W 122°21'019.5
2015-Jan-18 18:33N 47°36' W 122°22'1110.9
2015-Jan-18 17:33N 47°34' W 122°38'0 0.0
2015-Jan-18 17:29N 47°34' W 122°38'1112.1
2015-Jan-18 16:34N 47°36' W 122°22'020.6
2015-Jan-18 16:33N 47°36' W 122°21'9 8.7
2015-Jan-18 15:34N 47°35' W 122°34'016.0
2015-Jan-18 15:33N 47°35' W 122°34'2 2.2
2015-Jan-18 14:34N 47°34' W 122°31'114.3
2015-Jan-18 14:29N 47°34' W 122°30'6 6.6
2015-Jan-18 13:33N 47°36' W 122°21'116.4
2015-Jan-18 13:29N 47°36' W 122°23'1010.9
2015-Jan-18 12:34N 47°34' W 122°37'0 0.0
2015-Jan-18 12:29N 47°34' W 122°37'0 0.0
2015-Jan-18 11:34N 47°34' W 122°37'0 0.0
2015-Jan-18 11:29N 47°34' W 122°37'0 0.0
2015-Jan-18 10:33N 47°34' W 122°37'0 0.1
2015-Jan-18 10:29N 47°34' W 122°37'0 0.0
2015-Jan-18 09:34N 47°34' W 122°37'0 0.0
2015-Jan-18 09:29N 47°34' W 122°37'0 0.0
2015-Jan-18 08:34N 47°34' W 122°37'0 0.0
2015-Jan-18 07:34N 47°34' W 122°37'0 0.0
2015-Jan-18 07:34N 47°34' W 122°37'0 0.0
2015-Jan-18 07:04N 47°34' W 122°37'0 0.0
2015-Jan-18 06:34N 47°34' W 122°37'5 4.8
2015-Jan-18 05:33N 47°34' W 122°30'215.9
2015-Jan-18 05:28N 47°35' W 122°28'2 2.1
2015-Jan-18 04:33N 47°35' W 122°25'813.4
2015-Jan-18 03:56N 47°34' W 122°37'2 4.5
2015-Jan-18 03:33N 47°35' W 122°35'115.0
2015-Jan-18 03:31N 47°35' W 122°35'10 9.6
2015-Jan-18 02:31N 47°36' W 122°20'0 0.0
2015-Jan-18 02:30N 47°36' W 122°20'1212.4
2015-Jan-18 01:33N 47°34' W 122°38'0 0.0
2015-Jan-18 01:30N 47°34' W 122°38'1010.5
2015-Jan-18 00:33N 47°37' W 122°23'115.0
2015-Jan-18 00:30N 47°36' W 122°22'4 4.0
2015-Jan-17 23:33N 47°35' W 122°28'117.2
2015-Jan-17 23:30N 47°34' W 122°29'6 6.3
2015-Jan-17 22:33N 47°34' W 122°38'1211.4
2015-Jan-17 21:33N 47°36' W 122°21'1010.0
2015-Jan-17 20:33N 47°35' W 122°35'2 5.7
2015-Jan-17 20:14N 47°34' W 122°38'6 8.7
2015-Jan-17 19:33N 47°35' W 122°29'116.4
2015-Jan-17 19:29N 47°35' W 122°27'4 3.8
2015-Jan-17 18:33N 47°36' W 122°22'115.3
2015-Jan-17 18:29N 47°36' W 122°24'910.2
2015-Jan-17 17:33N 47°34' W 122°38'0 0.1
2015-Jan-17 17:29N 47°34' W 122°38'1212.4
2015-Jan-17 16:33N 47°36' W 122°21'7 8.5
2015-Jan-17 15:46N 47°34' W 122°30'313.4
2015-Jan-17 15:34N 47°35' W 122°34'015.2
2015-Jan-17 15:32N 47°35' W 122°35'2 2.3
2015-Jan-17 14:33N 47°34' W 122°32'215.1
2015-Jan-17 14:25N 47°35' W 122°29'3 3.1
2015-Jan-17 13:33N 47°36' W 122°25'116.9
2015-Jan-17 13:30N 47°35' W 122°26'8 8.1
2015-Jan-17 12:33N 47°34' W 122°37'0 0.0
2015-Jan-17 12:24N 47°34' W 122°37'0 0.0
2015-Jan-17 11:33N 47°34' W 122°37'0 0.1
2015-Jan-17 11:29N 47°34' W 122°37'0 0.0
2015-Jan-17 10:33N 47°34' W 122°37'0 0.0
2015-Jan-17 10:07N 47°34' W 122°37'0 0.0
2015-Jan-17 09:33N 47°34' W 122°37'0 0.0
2015-Jan-17 08:50N 47°34' W 122°37'0 0.0
2015-Jan-17 08:33N 47°34' W 122°37'0 0.0
2015-Jan-17 08:30N 47°34' W 122°37'0 0.0
2015-Jan-17 07:33N 47°34' W 122°37'0 0.0
2015-Jan-17 07:30N 47°34' W 122°37'0 0.0
2015-Jan-17 07:04N 47°34' W 122°37'0 0.0
2015-Jan-17 06:33N 47°34' W 122°37'4 4.3
2015-Jan-17 05:34N 47°34' W 122°31'116.3
2015-Jan-17 05:29N 47°34' W 122°29'3 2.9
2015-Jan-17 04:33N 47°36' W 122°26'117.3
2015-Jan-17 04:29N 47°35' W 122°27'6 6.0
2015-Jan-17 03:34N 47°34' W 122°35'115.5
2015-Jan-17 03:29N 47°35' W 122°34'910.2
2015-Jan-17 02:34N 47°36' W 122°20'0 1.0
2015-Jan-17 02:24N 47°36' W 122°21'1213.8
2015-Jan-17 01:33N 47°34' W 122°38'0 0.0
2015-Jan-17 01:29N 47°34' W 122°38'9 9.4
2015-Jan-17 00:33N 47°36' W 122°25'3 6.1
2015-Jan-17 00:03N 47°36' W 122°20'5 9.9
2015-Jan-16 23:33N 47°35' W 122°27'014.1
2015-Jan-16 23:33N 47°35' W 122°27'7 6.9
2015-Jan-16 22:33N 47°34' W 122°38'0 0.0
2015-Jan-16 22:33N 47°34' W 122°38'1111.5
2015-Jan-16 21:33N 47°36' W 122°21'010.8
2015-Jan-16 21:33N 47°36' W 122°21'9 9.4
2015-Jan-16 20:34N 47°35' W 122°35'014.1
2015-Jan-16 20:33N 47°35' W 122°35'5 4.6
2015-Jan-16 19:33N 47°35' W 122°28'012.9
2015-Jan-16 19:33N 47°35' W 122°28'4 4.0
2015-Jan-16 18:33N 47°36' W 122°22'014.6
2015-Jan-16 18:33N 47°36' W 122°22'1110.7
2015-Jan-16 17:33N 47°34' W 122°38'0 0.0
2015-Jan-16 17:33N 47°34' W 122°38'12 9.8
2015-Jan-16 16:21N 47°36' W 122°20'0 1.3
2015-Jan-16 16:13N 47°36' W 122°21'914.1
2015-Jan-16 15:34N 47°35' W 122°34'016.2
2015-Jan-16 15:32N 47°35' W 122°35'2 2.0
2015-Jan-16 14:34N 47°34' W 122°32'113.8
2015-Jan-16 14:27N 47°34' W 122°30'4 4.2
2015-Jan-16 13:33N 47°36' W 122°25'017.3
2015-Jan-16 13:32N 47°36' W 122°25'8 8.6
2015-Jan-16 12:33N 47°34' W 122°37'0 0.0
2015-Jan-16 12:32N 47°34' W 122°37'0 0.0
2015-Jan-16 11:33N 47°34' W 122°37'0 0.0
2015-Jan-16 11:26N 47°34' W 122°37'0 0.0
2015-Jan-16 10:33N 47°34' W 122°37'0 0.2
2015-Jan-16 10:32N 47°34' W 122°37'0 0.0
2015-Jan-16 09:34N 47°34' W 122°37'0 0.0
2015-Jan-16 09:31N 47°34' W 122°37'0 0.0
2015-Jan-16 08:34N 47°34' W 122°37'0 0.0
2015-Jan-16 08:31N 47°34' W 122°37'0 0.0
2015-Jan-16 07:34N 47°34' W 122°37'0 0.0
2015-Jan-16 07:31N 47°34' W 122°37'0 0.0
2015-Jan-16 06:51N 47°34' W 122°37'0 0.0
2015-Jan-16 06:33N 47°34' W 122°37'5 4.7
2015-Jan-16 05:33N 47°34' W 122°31'116.5
2015-Jan-16 05:31N 47°34' W 122°30'1 1.5
2015-Jan-16 04:33N 47°35' W 122°28'0 9.6
2015-Jan-16 04:31N 47°35' W 122°28'5 5.1
2015-Jan-16 03:34N 47°34' W 122°35'116.3
2015-Jan-16 03:31N 47°35' W 122°35'1010.2
2015-Jan-16 02:34N 47°36' W 122°20'0 3.3
2015-Jan-16 02:26N 47°36' W 122°21'1113.1
2015-Jan-16 01:33N 47°34' W 122°38'0 0.0
2015-Jan-16 01:25N 47°34' W 122°38'910.2
2015-Jan-16 00:34N 47°36' W 122°25'117.3
2015-Jan-16 00:30N 47°36' W 122°23'3 3.0
2015-Jan-15 23:34N 47°35' W 122°27'117.7
2015-Jan-15 23:30N 47°34' W 122°28'6 6.5
2015-Jan-15 22:34N 47°34' W 122°38'0 0.0
2015-Jan-15 22:30N 47°34' W 122°38'1112.1
2015-Jan-15 21:35N 47°36' W 122°21'016.3
2015-Jan-15 21:34N 47°36' W 122°21'9 8.8
2015-Jan-15 20:35N 47°35' W 122°34'013.6
2015-Jan-15 20:34N 47°35' W 122°34'4 3.6
2015-Jan-15 19:33N 47°35' W 122°29'116.8
2015-Jan-15 19:29N 47°35' W 122°27'4 3.8
2015-Jan-15 18:33N 47°36' W 122°22'116.4
2015-Jan-15 18:29N 47°36' W 122°24'1010.3
2015-Jan-15 17:34N 47°34' W 122°38'0 0.0
2015-Jan-15 17:34N 47°34' W 122°38'  
Track history (hours):
 
Tides and Currents Weather Stations Pressure Air Temp Water Temp Dewpoint Dewpoint Depression Visibility Wind Speed Wind Dir Waves Ship Positions

Cathlamet

Owner: WASHINGTON, STATE OF; Dept. of Transportation, OLYMPIA, WA. More information available from US FCC via Universal Licensing System and Coast Guard Vessel Documentation Center.

Last reported at 2015-Jan-25 17:33 UTC. Time now 2015-Jan-25 18:24 UTC.
Position N 47°34' W 122°38'.

Length 100 m.

Type: Passenger vessel. MMSI: 366773070.

Date/timePositionNaut miles runAvg speedWind from/ knotsBaromVisibWave heightAir tempDewpointWater temp
2015-Jan-25 17:33N 47°34' W 122°38'0 0.0
2015-Jan-25 17:29N 47°34' W 122°38'1112.1
2015-Jan-25 16:33N 47°36' W 122°21'1 6.8
2015-Jan-25 16:29N 47°36' W 122°20'910.1
2015-Jan-25 15:33N 47°35' W 122°34'3 4.7
2015-Jan-25 14:58N 47°34' W 122°37'511.8
2015-Jan-25 14:34N 47°34' W 122°30'015.0
2015-Jan-25 14:33N 47°34' W 122°30'6 6.4
2015-Jan-25 13:34N 47°36' W 122°21'018.2
2015-Jan-25 13:33N 47°36' W 122°21'1111.2
2015-Jan-25 12:33N 47°34' W 122°37'0 0.0
2015-Jan-25 12:26N 47°34' W 122°37'0 0.0
2015-Jan-25 11:33N 47°34' W 122°37'0 0.1
2015-Jan-25 11:31N 47°34' W 122°37'0 0.0
2015-Jan-25 10:33N 47°34' W 122°37'0 0.0
2015-Jan-25 10:31N 47°34' W 122°37'0 0.0
2015-Jan-25 09:33N 47°34' W 122°37'0 0.0
2015-Jan-25 09:30N 47°34' W 122°37'0 0.0
2015-Jan-25 08:33N 47°34' W 122°37'0 0.0
2015-Jan-25 08:31N 47°34' W 122°37'0 0.0
2015-Jan-25 07:33N 47°34' W 122°37'0 0.0
2015-Jan-25 07:30N 47°34' W 122°37'0 0.0
2015-Jan-25 07:06N 47°34' W 122°37'0 0.0
2015-Jan-25 06:33N 47°34' W 122°37'7 6.6
2015-Jan-25 05:33N 47°35' W 122°28'115.2
2015-Jan-25 05:30N 47°35' W 122°27'2 2.2
2015-Jan-25 04:33N 47°34' W 122°29'117.3
2015-Jan-25 04:30N 47°34' W 122°31'3 3.1
2015-Jan-25 03:33N 47°35' W 122°35'113.8
2015-Jan-25 03:29N 47°35' W 122°34'9 9.6
2015-Jan-25 02:33N 47°36' W 122°20'0 1.6
2015-Jan-25 02:28N 47°36' W 122°21'1212.8
2015-Jan-25 01:33N 47°34' W 122°38'0 1.7
2015-Jan-25 01:16N 47°34' W 122°37'912.9
2015-Jan-25 00:34N 47°37' W 122°24'115.7
2015-Jan-25 00:31N 47°37' W 122°23'4 3.7
2015-Jan-24 23:33N 47°35' W 122°28'117.1
2015-Jan-24 23:31N 47°34' W 122°29'6 6.1
2015-Jan-24 22:33N 47°34' W 122°38'0 0.0
2015-Jan-24 22:31N 47°34' W 122°38'1111.9
2015-Jan-24 21:33N 47°36' W 122°21'9 8.8
2015-Jan-24 20:34N 47°35' W 122°34'4 3.7
2015-Jan-24 19:33N 47°35' W 122°29'6 8.9
2015-Jan-24 18:54N 47°36' W 122°20'0 1.3
2015-Jan-24 18:33N 47°36' W 122°21'1111.4
2015-Jan-24 17:34N 47°34' W 122°38'3 8.0
2015-Jan-24 17:12N 47°35' W 122°34'914.0
2015-Jan-24 16:33N 47°36' W 122°21'0 1.0
2015-Jan-24 16:21N 47°36' W 122°20'911.6
2015-Jan-24 15:34N 47°35' W 122°34'013.1
2015-Jan-24 15:32N 47°35' W 122°35'2 2.3
2015-Jan-24 14:34N 47°34' W 122°32'012.1
2015-Jan-24 14:31N 47°34' W 122°31'4 4.0
2015-Jan-24 13:33N 47°36' W 122°26'116.9
2015-Jan-24 13:31N 47°35' W 122°26'8 7.8
2015-Jan-24 12:33N 47°34' W 122°37'0 0.2
2015-Jan-24 12:31N 47°34' W 122°37'0 0.0
2015-Jan-24 11:33N 47°34' W 122°37'0 0.0
2015-Jan-24 11:26N 47°34' W 122°37'0 0.0
2015-Jan-24 10:33N 47°34' W 122°37'0 0.0
2015-Jan-24 10:31N 47°34' W 122°37'0 0.0
2015-Jan-24 09:33N 47°34' W 122°37'0 0.0
2015-Jan-24 09:30N 47°34' W 122°37'0 0.0
2015-Jan-24 08:33N 47°34' W 122°37'0 0.0
2015-Jan-24 08:29N 47°34' W 122°37'0 0.0
2015-Jan-24 07:33N 47°34' W 122°37'0 0.1
2015-Jan-24 07:30N 47°34' W 122°37'0 0.0
2015-Jan-24 07:00N 47°34' W 122°37'0 0.0
2015-Jan-24 06:33N 47°34' W 122°37'5 4.7
2015-Jan-24 05:33N 47°34' W 122°31'115.9
2015-Jan-24 05:30N 47°35' W 122°29'2 2.6
2015-Jan-24 04:34N 47°35' W 122°26'116.9
2015-Jan-24 04:30N 47°35' W 122°27'6 6.3
2015-Jan-24 03:33N 47°34' W 122°36'116.5
2015-Jan-24 03:29N 47°35' W 122°35'1010.1
2015-Jan-24 02:31N 47°36' W 122°20'1 4.6
2015-Jan-24 02:18N 47°36' W 122°22'1113.9
2015-Jan-24 01:33N 47°34' W 122°37'0 5.0
2015-Jan-24 01:29N 47°34' W 122°38'9 9.5
2015-Jan-24 00:34N 47°36' W 122°25'019.2
2015-Jan-24 00:33N 47°36' W 122°25'2 2.4
2015-Jan-23 23:34N 47°35' W 122°28'016.8
2015-Jan-23 23:33N 47°35' W 122°28'6 6.5
2015-Jan-23 22:33N 47°34' W 122°38'0 0.0
2015-Jan-23 22:32N 47°34' W 122°38'1211.7
2015-Jan-23 21:34N 47°36' W 122°21'0 2.8
2015-Jan-23 21:27N 47°36' W 122°20'910.4
2015-Jan-23 20:34N 47°35' W 122°34'4 4.4
2015-Jan-23 19:33N 47°35' W 122°28'4 4.3
2015-Jan-23 18:34N 47°36' W 122°22'1111.0
2015-Jan-23 17:34N 47°34' W 122°38'1211.5
2015-Jan-23 16:33N 47°36' W 122°21'9 8.9
2015-Jan-23 15:34N 47°35' W 122°34'3 2.7
2015-Jan-23 14:34N 47°34' W 122°30'3 3.0
2015-Jan-23 13:34N 47°35' W 122°26'8 7.6
2015-Jan-23 12:34N 47°34' W 122°37'0 0.0
2015-Jan-23 11:34N 47°34' W 122°37'0 0.0
2015-Jan-23 10:33N 47°34' W 122°37'0 0.0
2015-Jan-23 09:33N 47°34' W 122°37'0 0.0
2015-Jan-23 08:34N 47°34' W 122°37'0 0.0
2015-Jan-23 07:34N 47°34' W 122°37'0 0.0
2015-Jan-23 06:33N 47°34' W 122°37'5 4.8
2015-Jan-23 05:33N 47°34' W 122°30'116.9
2015-Jan-23 05:31N 47°34' W 122°30'3 3.3
2015-Jan-23 04:34N 47°36' W 122°25'117.7
2015-Jan-23 04:31N 47°35' W 122°26'6 6.4
2015-Jan-23 03:33N 47°35' W 122°35'016.2
2015-Jan-23 03:31N 47°35' W 122°35'10 9.7
2015-Jan-23 02:31N 47°36' W 122°20'0 1.3
2015-Jan-23 02:29N 47°36' W 122°20'1212.8
2015-Jan-23 01:34N 47°34' W 122°38'0 0.0
2015-Jan-23 01:33N 47°34' W 122°38'9 8.9
2015-Jan-23 00:34N 47°36' W 122°25'022.8
2015-Jan-23 00:33N 47°36' W 122°25'3 2.7
2015-Jan-22 23:34N 47°35' W 122°28'076.0
2015-Jan-22 23:34N 47°35' W 122°28'6 6.3
2015-Jan-22 22:33N 47°34' W 122°38'0 0.0
2015-Jan-22 22:33N 47°34' W 122°38'1211.6
2015-Jan-22 21:33N 47°36' W 122°21'1 2.0
2015-Jan-22 21:08N 47°36' W 122°22'814.3
2015-Jan-22 20:34N 47°35' W 122°34'014.2
2015-Jan-22 20:33N 47°35' W 122°34'4 4.1
2015-Jan-22 19:34N 47°35' W 122°28'216.7
2015-Jan-22 19:26N 47°36' W 122°25'3 3.4
2015-Jan-22 18:33N 47°36' W 122°21'116.0
2015-Jan-22 18:31N 47°36' W 122°22'1111.2
2015-Jan-22 17:33N 47°34' W 122°38'0 0.0
2015-Jan-22 17:31N 47°34' W 122°38'1111.8
2015-Jan-22 16:33N 47°36' W 122°21'0 9.9
2015-Jan-22 16:31N 47°36' W 122°20'9 9.7
2015-Jan-22 15:33N 47°35' W 122°34'115.6
2015-Jan-22 15:31N 47°35' W 122°35'2 1.9
2015-Jan-22 14:34N 47°34' W 122°32'213.1
2015-Jan-22 14:26N 47°34' W 122°30'4 4.3
2015-Jan-22 13:34N 47°36' W 122°25'117.1
2015-Jan-22 13:31N 47°36' W 122°26'8 8.5
2015-Jan-22 12:33N 47°34' W 122°37'0 0.0
2015-Jan-22 12:30N 47°34' W 122°37'0 0.0
2015-Jan-22 11:33N 47°34' W 122°37'0 0.0
2015-Jan-22 11:26N 47°34' W 122°37'0 0.0
2015-Jan-22 10:33N 47°34' W 122°37'0 0.1
2015-Jan-22 10:30N 47°34' W 122°37'0 0.0
2015-Jan-22 09:33N 47°34' W 122°37'0 0.0
2015-Jan-22 09:30N 47°34' W 122°37'0 0.0
2015-Jan-22 08:33N 47°34' W 122°37'0 0.0
2015-Jan-22 08:30N 47°34' W 122°37'0 0.0
2015-Jan-22 07:33N 47°34' W 122°37'0 0.0
2015-Jan-22 07:30N 47°34' W 122°37'0 0.0
2015-Jan-22 07:05N 47°34' W 122°37'0 0.0
2015-Jan-22 06:33N 47°34' W 122°37'5 4.8
2015-Jan-22 05:34N 47°34' W 122°30'115.7
2015-Jan-22 05:29N 47°35' W 122°29'3 3.2
2015-Jan-22 04:33N 47°36' W 122°25'117.1
2015-Jan-22 04:29N 47°35' W 122°27'6 6.5
2015-Jan-22 03:34N 47°35' W 122°35'015.4
2015-Jan-22 03:32N 47°35' W 122°35'1010.1
2015-Jan-22 02:33N 47°36' W 122°20'0 0.0
2015-Jan-22 02:32N 47°36' W 122°20'1212.1
2015-Jan-22 01:34N 47°34' W 122°37'0 3.2
2015-Jan-22 01:31N 47°34' W 122°38'9 9.2
2015-Jan-22 00:33N 47°36' W 122°25'117.0
2015-Jan-22 00:31N 47°36' W 122°24'3 3.6
2015-Jan-21 23:33N 47°35' W 122°28'116.4
2015-Jan-21 23:31N 47°34' W 122°29'5 8.2
2015-Jan-21 22:50N 47°34' W 122°38'0 0.1
2015-Jan-21 22:46N 47°34' W 122°38'0 0.0
2015-Jan-21 22:46N 47°34' W 122°38'0 0.0
2015-Jan-21 22:33N 47°34' W 122°38'1 2.7
2015-Jan-21 22:20N 47°33' W 122°37'1114.1
2015-Jan-21 21:33N 47°36' W 122°21'1 1.8
2015-Jan-21 21:10N 47°36' W 122°22'813.7
2015-Jan-21 20:33N 47°35' W 122°34'116.4
2015-Jan-21 20:30N 47°35' W 122°35'4 4.6
2015-Jan-21 19:34N 47°34' W 122°29'117.0
2015-Jan-21 19:30N 47°35' W 122°27'4 4.5
2015-Jan-21 18:33N 47°36' W 122°21'117.0
2015-Jan-21 18:30N 47°36' W 122°23'1010.9
2015-Jan-21 17:34N 47°34' W 122°38'0 0.9
2015-Jan-21 17:30N 47°34' W 122°37'1212.2
2015-Jan-21 16:32N 47°36' W 122°20'0 0.5
2015-Jan-21 16:14N 47°36' W 122°21'1014.4
2015-Jan-21 15:33N 47°35' W 122°35'117.4
2015-Jan-21 15:30N 47°34' W 122°36'3 3.6
2015-Jan-21 14:33N 47°34' W 122°31'116.6
2015-Jan-21 14:30N 47°34' W 122°29'2 2.5
2015-Jan-21 13:34N 47°35' W 122°26'116.8
2015-Jan-21 13:29N 47°35' W 122°28'6 6.9
2015-Jan-21 12:33N 47°34' W 122°37'0 0.0
2015-Jan-21 12:29N 47°34' W 122°37'0 0.0
2015-Jan-21 11:33N 47°34' W 122°37'0 0.4
2015-Jan-21 11:33N 47°34' W 122°37'0 0.0
2015-Jan-21 10:33N 47°34' W 122°37'0 0.0
2015-Jan-21 10:28N 47°34' W 122°37'0 0.0
2015-Jan-21 09:33N 47°34' W 122°37'0 0.1
2015-Jan-21 09:28N 47°34' W 122°37'0 0.0
2015-Jan-21 08:33N 47°34' W 122°37'0 0.2
2015-Jan-21 08:32N 47°34' W 122°37'0 0.0
2015-Jan-21 07:33N 47°34' W 122°37'0 0.4
2015-Jan-21 07:32N 47°34' W 122°37'0 0.0
2015-Jan-21 07:02N 47°34' W 122°37'0 0.0
2015-Jan-21 06:33N 47°34' W 122°37'6 5.7
2015-Jan-21 05:34N 47°34' W 122°29'011.2
2015-Jan-21 05:32N 47°35' W 122°29'2 2.1
2015-Jan-21 04:33N 47°35' W 122°26'6 6.1
2015-Jan-21 03:34N 47°35' W 122°35'3 9.5
2015-Jan-21 03:12N 47°34' W 122°30'7 8.8
2015-Jan-21 02:26N 47°36' W 122°20'0 3.8
2015-Jan-21 02:23N 47°36' W 122°21'1214.1
2015-Jan-21 01:33N 47°34' W 122°37'0 1.5
2015-Jan-21 01:32N 47°34' W 122°37'9 9.0
2015-Jan-21 00:33N 47°36' W 122°25'0 8.3
2015-Jan-21 00:33N 47°36' W 122°25'3 2.9
2015-Jan-20 23:33N 47°34' W 122°28'013.5
2015-Jan-20 23:32N 47°34' W 122°29'6 6.1
2015-Jan-20 22:33N 47°34' W 122°38'0 0.0
2015-Jan-20 22:33N 47°34' W 122°38'1210.3
2015-Jan-20 21:24N 47°36' W 122°20'2 6.5
2015-Jan-20 21:07N 47°36' W 122°23'713.5
2015-Jan-20 20:33N 47°35' W 122°34'013.8
2015-Jan-20 20:31N 47°35' W 122°35'4 4.1
2015-Jan-20 19:33N 47°35' W 122°29'115.2
2015-Jan-20 19:31N 47°35' W 122°28'5 4.7
2015-Jan-20 18:33N 47°36' W 122°22'013.9
2015-Jan-20 18:31N 47°36' W 122°22'1010.9
2015-Jan-20 17:33N 47°34' W 122°38'0 0.2
2015-Jan-20 17:31N 47°34' W 122°38'1212.0
2015-Jan-20 16:33N 47°36' W 122°21'0 5.5
2015-Jan-20 16:30N 47°36' W 122°20'9 9.7
2015-Jan-20 15:34N 47°35' W 122°34'114.3
2015-Jan-20 15:30N 47°35' W 122°35'2 2.4
2015-Jan-20 14:34N 47°34' W 122°32'114.1
2015-Jan-20 14:30N 47°34' W 122°31'4 4.0
2015-Jan-20 13:33N 47°36' W 122°25'612.9
2015-Jan-20 13:05N 47°35' W 122°35'2 4.5
2015-Jan-20 12:33N 47°34' W 122°37'0 0.1
2015-Jan-20 12:30N 47°34' W 122°37'0 0.0
2015-Jan-20 11:33N 47°34' W 122°37'0 0.0
2015-Jan-20 11:29N 47°34' W 122°37'0 0.0
2015-Jan-20 10:33N 47°34' W 122°37'0 0.0
2015-Jan-20 10:07N 47°34' W 122°37'0 0.0
2015-Jan-20 09:33N 47°34' W 122°37'0 0.0
2015-Jan-20 09:32N 47°34' W 122°37'0 0.0
2015-Jan-20 08:33N 47°34' W 122°37'0 0.0
2015-Jan-20 08:32N 47°34' W 122°37'0 0.0
2015-Jan-20 07:33N 47°34' W 122°37'0 0.0
2015-Jan-20 07:32N 47°34' W 122°37'0 0.0
2015-Jan-20 07:03N 47°34' W 122°37'0 0.0
2015-Jan-20 06:33N 47°34' W 122°37'5 4.7
2015-Jan-20 05:33N 47°34' W 122°31'012.1
2015-Jan-20 05:32N 47°34' W 122°30'3 3.2
2015-Jan-20 04:33N 47°35' W 122°26'614.3
2015-Jan-20 04:10N 47°35' W 122°34'1 0.9
2015-Jan-20 03:33N 47°35' W 122°35'011.9
2015-Jan-20 03:31N 47°35' W 122°34'9 9.2
2015-Jan-20 02:30N 47°36' W 122°20'0 0.0
2015-Jan-20 02:28N 47°36' W 122°20'1212.9
2015-Jan-20 01:33N 47°34' W 122°38'0 0.0
2015-Jan-20 01:30N 47°34' W 122°38'9 9.3
2015-Jan-20 00:34N 47°36' W 122°25'115.5
2015-Jan-20 00:31N 47°36' W 122°24'3 3.3
2015-Jan-19 23:33N 47°35' W 122°28'116.5
2015-Jan-19 23:31N 47°34' W 122°29'6 6.1
2015-Jan-19 22:33N 47°34' W 122°38'0 0.1
2015-Jan-19 22:31N 47°34' W 122°38'1111.8
2015-Jan-19 21:33N 47°36' W 122°21'1 3.8
2015-Jan-19 21:24N 47°36' W 122°20'910.9
2015-Jan-19 20:33N 47°35' W 122°34'113.8
2015-Jan-19 20:30N 47°35' W 122°35'4 4.7
2015-Jan-19 19:33N 47°35' W 122°28'116.2
2015-Jan-19 19:30N 47°35' W 122°27'3 3.6
2015-Jan-19 18:34N 47°36' W 122°22'114.1
2015-Jan-19 18:30N 47°36' W 122°23'1010.6
2015-Jan-19 17:33N 47°34' W 122°38'0 0.1
2015-Jan-19 17:30N 47°34' W 122°38'1112.0
2015-Jan-19 16:33N 47°36' W 122°21'9 9.0
2015-Jan-19 15:33N 47°35' W 122°34'2 1.8
2015-Jan-19 14:33N 47°34' W 122°32'213.4
2015-Jan-19 14:24N 47°35' W 122°29'3 3.6
2015-Jan-19 13:33N 47°36' W 122°24'116.4
2015-Jan-19 13:29N 47°35' W 122°26'8 8.4
2015-Jan-19 12:33N 47°34' W 122°37'0 0.1
2015-Jan-19 12:29N 47°34' W 122°37'0 0.0
2015-Jan-19 11:33N 47°34' W 122°37'0 0.1
2015-Jan-19 11:28N 47°34' W 122°37'0 0.0
2015-Jan-19 10:33N 47°34' W 122°37'0 0.0
2015-Jan-19 10:29N 47°34' W 122°37'0 0.0
2015-Jan-19 09:33N 47°34' W 122°37'0 0.1
2015-Jan-19 09:29N 47°34' W 122°37'0 0.0
2015-Jan-19 08:33N 47°34' W 122°37'0 0.0
2015-Jan-19 07:33N 47°34' W 122°37'0 0.0
2015-Jan-19 07:11N 47°34' W 122°37'0 0.0
2015-Jan-19 07:01N 47°34' W 122°37'0 0.0
2015-Jan-19 06:33N 47°34' W 122°37'5 5.1
2015-Jan-19 05:33N 47°34' W 122°30'114.6
2015-Jan-19 05:31N 47°35' W 122°29'2 1.7
2015-Jan-19 04:33N 47°35' W 122°27'117.0
2015-Jan-19 04:30N 47°35' W 122°28'4 4.7
2015-Jan-19 03:33N 47°35' W 122°35'0 9.8
2015-Jan-19 03:31N 47°35' W 122°34'9 9.0
2015-Jan-19 02:30N 47°36' W 122°20'0 0.0
2015-Jan-19 02:29N 47°36' W 122°20'1212.6
2015-Jan-19 01:34N 47°34' W 122°38'0 0.0
2015-Jan-19 01:29N 47°34' W 122°38'910.0
2015-Jan-19 00:33N 47°36' W 122°24'115.6
2015-Jan-19 00:30N 47°36' W 122°23'3 3.4
2015-Jan-18 23:33N 47°35' W 122°27'117.1
2015-Jan-18 23:30N 47°34' W 122°28'6 6.6
2015-Jan-18 22:33N 47°34' W 122°38'0 0.0
2015-Jan-18 22:30N 47°34' W 122°38'1112.1
2015-Jan-18 21:33N 47°36' W 122°21'0 6.9
2015-Jan-18 21:30N 47°36' W 122°20'9 9.6
2015-Jan-18 20:34N 47°35' W 122°34'113.8
2015-Jan-18 20:30N 47°35' W 122°35'4 4.6
2015-Jan-18 19:33N 47°35' W 122°28'115.3
2015-Jan-18 19:30N 47°35' W 122°27'4 4.6
2015-Jan-18 18:35N 47°36' W 122°21'019.5
2015-Jan-18 18:33N 47°36' W 122°22'1110.9
2015-Jan-18 17:33N 47°34' W 122°38'0 0.0
2015-Jan-18 17:29N 47°34' W 122°38'1112.1
2015-Jan-18 16:34N 47°36' W 122°22'020.6
2015-Jan-18 16:33N 47°36' W 122°21'9 8.7
2015-Jan-18 15:34N 47°35' W 122°34'016.0
2015-Jan-18 15:33N 47°35' W 122°34'2 2.2
2015-Jan-18 14:34N 47°34' W 122°31'114.3
2015-Jan-18 14:29N 47°34' W 122°30'6 6.6
2015-Jan-18 13:33N 47°36' W 122°21'116.4
2015-Jan-18 13:29N 47°36' W 122°23'1010.9
2015-Jan-18 12:34N 47°34' W 122°37'0 0.0
2015-Jan-18 12:29N 47°34' W 122°37'0 0.0
2015-Jan-18 11:34N 47°34' W 122°37'0 0.0
2015-Jan-18 11:29N 47°34' W 122°37'0 0.0
2015-Jan-18 10:33N 47°34' W 122°37'0 0.1
2015-Jan-18 10:29N 47°34' W 122°37'0 0.0
2015-Jan-18 09:34N 47°34' W 122°37'0 0.0
2015-Jan-18 09:29N 47°34' W 122°37'0 0.0
2015-Jan-18 08:34N 47°34' W 122°37'0 0.0
2015-Jan-18 07:34N 47°34' W 122°37'0 0.0
2015-Jan-18 07:34N 47°34' W 122°37'0 0.0
2015-Jan-18 07:04N 47°34' W 122°37'0 0.0
2015-Jan-18 06:34N 47°34' W 122°37'5 4.8
2015-Jan-18 05:33N 47°34' W 122°30'215.9
2015-Jan-18 05:28N 47°35' W 122°28'2 2.1
2015-Jan-18 04:33N 47°35' W 122°25'813.4
2015-Jan-18 03:56N 47°34' W 122°37'2 4.5
2015-Jan-18 03:33N 47°35' W 122°35'115.0
2015-Jan-18 03:31N 47°35' W 122°35'10 9.6
2015-Jan-18 02:31N 47°36' W 122°20'0 0.0
2015-Jan-18 02:30N 47°36' W 122°20'1212.4
2015-Jan-18 01:33N 47°34' W 122°38'0 0.0
2015-Jan-18 01:30N 47°34' W 122°38'1010.5
2015-Jan-18 00:33N 47°37' W 122°23'115.0
2015-Jan-18 00:30N 47°36' W 122°22'4 4.0
2015-Jan-17 23:33N 47°35' W 122°28'117.2
2015-Jan-17 23:30N 47°34' W 122°29'6 6.3
2015-Jan-17 22:33N 47°34' W 122°38'1211.4
2015-Jan-17 21:33N 47°36' W 122°21'1010.0
2015-Jan-17 20:33N 47°35' W 122°35'2 5.7
2015-Jan-17 20:14N 47°34' W 122°38'6 8.7
2015-Jan-17 19:33N 47°35' W 122°29'116.4
2015-Jan-17 19:29N 47°35' W 122°27'4 3.8
2015-Jan-17 18:33N 47°36' W 122°22'115.3
2015-Jan-17 18:29N 47°36' W 122°24'910.2
2015-Jan-17 17:33N 47°34' W 122°38'0 0.1
2015-Jan-17 17:29N 47°34' W 122°38'1212.4
2015-Jan-17 16:33N 47°36' W 122°21'7 8.5
2015-Jan-17 15:46N 47°34' W 122°30'313.4
2015-Jan-17 15:34N 47°35' W 122°34'015.2
2015-Jan-17 15:32N 47°35' W 122°35'2 2.3
2015-Jan-17 14:33N 47°34' W 122°32'215.1
2015-Jan-17 14:25N 47°35' W 122°29'3 3.1
2015-Jan-17 13:33N 47°36' W 122°25'116.9
2015-Jan-17 13:30N 47°35' W 122°26'8 8.1
2015-Jan-17 12:33N 47°34' W 122°37'0 0.0
2015-Jan-17 12:24N 47°34' W 122°37'0 0.0
2015-Jan-17 11:33N 47°34' W 122°37'0 0.1
2015-Jan-17 11:29N 47°34' W 122°37'0 0.0
2015-Jan-17 10:33N 47°34' W 122°37'0 0.0
2015-Jan-17 10:07N 47°34' W 122°37'0 0.0
2015-Jan-17 09:33N 47°34' W 122°37'0 0.0
2015-Jan-17 08:50N 47°34' W 122°37'0 0.0
2015-Jan-17 08:33N 47°34' W 122°37'0 0.0
2015-Jan-17 08:30N 47°34' W 122°37'0 0.0
2015-Jan-17 07:33N 47°34' W 122°37'0 0.0
2015-Jan-17 07:30N 47°34' W 122°37'0 0.0
2015-Jan-17 07:04N 47°34' W 122°37'0 0.0
2015-Jan-17 06:33N 47°34' W 122°37'4 4.3
2015-Jan-17 05:34N 47°34' W 122°31'116.3
2015-Jan-17 05:29N 47°34' W 122°29'3 2.9
2015-Jan-17 04:33N 47°36' W 122°26'117.3
2015-Jan-17 04:29N 47°35' W 122°27'6 6.0
2015-Jan-17 03:34N 47°34' W 122°35'115.5
2015-Jan-17 03:29N 47°35' W 122°34'910.2
2015-Jan-17 02:34N 47°36' W 122°20'0 1.0
2015-Jan-17 02:24N 47°36' W 122°21'1213.8
2015-Jan-17 01:33N 47°34' W 122°38'0 0.0
2015-Jan-17 01:29N 47°34' W 122°38'9 9.4
2015-Jan-17 00:33N 47°36' W 122°25'3 6.1
2015-Jan-17 00:03N 47°36' W 122°20'5 9.9
2015-Jan-16 23:33N 47°35' W 122°27'014.1
2015-Jan-16 23:33N 47°35' W 122°27'7 6.9
2015-Jan-16 22:33N 47°34' W 122°38'0 0.0
2015-Jan-16 22:33N 47°34' W 122°38'1111.5
2015-Jan-16 21:33N 47°36' W 122°21'010.8
2015-Jan-16 21:33N 47°36' W 122°21'9 9.4
2015-Jan-16 20:34N 47°35' W 122°35'014.1
2015-Jan-16 20:33N 47°35' W 122°35'5 4.6
2015-Jan-16 19:33N 47°35' W 122°28'012.9
2015-Jan-16 19:33N 47°35' W 122°28'4 4.0
2015-Jan-16 18:33N 47°36' W 122°22'014.6
2015-Jan-16 18:33N 47°36' W 122°22'1110.7
2015-Jan-16 17:33N 47°34' W 122°38'0 0.0
2015-Jan-16 17:33N 47°34' W 122°38'12 9.8
2015-Jan-16 16:21N 47°36' W 122°20'0 1.3
2015-Jan-16 16:13N 47°36' W 122°21'914.1
2015-Jan-16 15:34N 47°35' W 122°34'016.2
2015-Jan-16 15:32N 47°35' W 122°35'2 2.0
2015-Jan-16 14:34N 47°34' W 122°32'113.8
2015-Jan-16 14:27N 47°34' W 122°30'4 4.2
2015-Jan-16 13:33N 47°36' W 122°25'017.3
2015-Jan-16 13:32N 47°36' W 122°25'8 8.6
2015-Jan-16 12:33N 47°34' W 122°37'0 0.0
2015-Jan-16 12:32N 47°34' W 122°37'0 0.0
2015-Jan-16 11:33N 47°34' W 122°37'0 0.0
2015-Jan-16 11:26N 47°34' W 122°37'0 0.0
2015-Jan-16 10:33N 47°34' W 122°37'0 0.2
2015-Jan-16 10:32N 47°34' W 122°37'0 0.0
2015-Jan-16 09:34N 47°34' W 122°37'0 0.0
2015-Jan-16 09:31N 47°34' W 122°37'0 0.0
2015-Jan-16 08:34N 47°34' W 122°37'0 0.0
2015-Jan-16 08:31N 47°34' W 122°37'0 0.0
2015-Jan-16 07:34N 47°34' W 122°37'0 0.0
2015-Jan-16 07:31N 47°34' W 122°37'0 0.0
2015-Jan-16 06:51N 47°34' W 122°37'0 0.0
2015-Jan-16 06:33N 47°34' W 122°37'5 4.7
2015-Jan-16 05:33N 47°34' W 122°31'116.5
2015-Jan-16 05:31N 47°34' W 122°30'1 1.5
2015-Jan-16 04:33N 47°35' W 122°28'0 9.6
2015-Jan-16 04:31N 47°35' W 122°28'5 5.1
2015-Jan-16 03:34N 47°34' W 122°35'116.3
2015-Jan-16 03:31N 47°35' W 122°35'1010.2
2015-Jan-16 02:34N 47°36' W 122°20'0 3.3
2015-Jan-16 02:26N 47°36' W 122°21'1113.1
2015-Jan-16 01:33N 47°34' W 122°38'0 0.0
2015-Jan-16 01:25N 47°34' W 122°38'910.2
2015-Jan-16 00:34N 47°36' W 122°25'117.3
2015-Jan-16 00:30N 47°36' W 122°23'3 3.0
2015-Jan-15 23:34N 47°35' W 122°27'117.7
2015-Jan-15 23:30N 47°34' W 122°28'6 6.5
2015-Jan-15 22:34N 47°34' W 122°38'0 0.0
2015-Jan-15 22:30N 47°34' W 122°38'1112.1
2015-Jan-15 21:35N 47°36' W 122°21'016.3
2015-Jan-15 21:34N 47°36' W 122°21'9 8.8
2015-Jan-15 20:35N 47°35' W 122°34'013.6
2015-Jan-15 20:34N 47°35' W 122°34'4 3.6
2015-Jan-15 19:33N 47°35' W 122°29'116.8
2015-Jan-15 19:29N 47°35' W 122°27'4 3.8
2015-Jan-15 18:33N 47°36' W 122°22'116.4
2015-Jan-15 18:29N 47°36' W 122°24'1010.3
2015-Jan-15 17:34N 47°34' W 122°38'0 0.0
2015-Jan-15 17:34N 47°34' W 122°38'  

Dump ship's entire track history